Time;durP1;ratioP1;P1;durP2;ratioP2;P2;SDS_P1;SDS_P2;PMS_P1;PMS_P2;Temp;Humidity;BMP_temperature;BMP_pressure;BME280_temperature;BME280_humidity;BME280_pressure;Samples;Min_cycle;Max_cycle;Signal;HPM_P1;HPM_P2
2022/05/23 00:01:52;;;;;;;11.35;10.20;;;20.50;99.90;;;;;;5039375;28;20476;-78
2022/05/23 00:04:18;;;;;;;18.05;11.98;;;20.60;99.90;;;;;;5038350;28;20142;-78
2022/05/23 00:06:44;;;;;;;21.75;10.77;;;20.50;99.90;;;;;;5042756;28;20140;-78
2022/05/23 00:09:10;;;;;;;16.25;12.57;;;20.50;99.90;;;;;;5040350;28;20026;-78
2022/05/23 00:11:35;;;;;;;13.40;10.95;;;20.40;99.90;;;;;;5040016;28;20029;-78
2022/05/23 00:14:01;;;;;;;12.60;11.25;;;20.40;99.90;;;;;;5044892;28;20387;-78
2022/05/23 00:16:32;;;;;;;13.73;11.70;;;20.30;99.90;;;;;;5041471;28;20095;-78
2022/05/23 00:18:59;;;;;;;15.57;10.40;;;20.40;99.90;;;;;;5041804;28;20030;-78
2022/05/23 00:21:25;;;;;;;11.27;10.07;;;20.30;99.90;;;;;;5038763;28;20079;-78
2022/05/23 00:23:51;;;;;;;11.55;9.75;;;20.30;99.90;;;;;;5021871;28;20037;-78
2022/05/23 00:26:19;;;;;;;11.45;10.30;;;20.30;99.90;;;;;;5038099;28;20537;-78
2022/05/23 00:28:46;;;;;;;10.27;9.20;;;20.40;99.90;;;;;;5026737;28;20037;-78
2022/05/23 00:31:12;;;;;;;12.60;9.65;;;20.40;99.90;;;;;;5025507;28;20036;-78
2022/05/23 00:36:28;;;;;;;11.85;10.52;;;20.40;99.90;;;;;;5040692;28;20029;-77
2022/05/23 00:38:54;;;;;;;15.88;10.13;;;20.40;99.90;;;;;;5020979;28;20384;-78
2022/05/23 00:44:17;;;;;;;13.95;10.30;;;20.50;99.90;;;;;;5037177;28;20107;-78
2022/05/23 00:47:16;;;;;;;11.73;10.00;;;20.50;99.90;;;;;;5043552;28;20017;-77
2022/05/23 00:49:42;;;;;;;11.98;10.07;;;20.50;99.90;;;;;;5029298;28;20120;-77
2022/05/23 00:52:11;;;;;;;15.40;10.40;;;20.60;99.90;;;;;;5040520;28;20097;-78
2022/05/23 00:54:47;;;;;;;11.35;10.10;;;20.60;99.90;;;;;;5044705;28;20071;-77
2022/05/23 00:57:18;;;;;;;11.90;10.00;;;20.50;99.90;;;;;;5024606;28;20465;-78
2022/05/23 00:59:44;;;;;;;12.50;9.15;;;20.50;99.90;;;;;;5044589;28;20385;-78
2022/05/23 01:02:13;;;;;;;10.52;9.45;;;20.40;99.90;;;;;;5041233;28;20040;-78
2022/05/23 01:04:40;;;;;;;15.52;9.50;;;20.50;99.90;;;;;;5026865;28;20028;-78
2022/05/23 01:07:06;;;;;;;11.80;9.13;;;20.50;99.90;;;;;;5023148;28;20033;-78
2022/05/23 01:09:33;;;;;;;11.90;9.32;;;20.50;99.90;;;;;;5027762;28;20021;-78
2022/05/23 01:11:59;;;;;;;11.80;9.95;;;20.50;99.90;;;;;;5020401;28;20018;-78
2022/05/23 01:14:26;;;;;;;12.40;9.45;;;20.50;99.90;;;;;;5028896;28;20107;-78
2022/05/23 01:16:52;;;;;;;11.77;9.88;;;20.50;99.90;;;;;;5039667;28;20022;-78
2022/05/23 01:19:17;;;;;;;11.50;9.57;;;20.50;99.90;;;;;;5019174;28;20107;-78
2022/05/23 01:21:57;;;;;;;10.75;9.18;;;20.50;99.90;;;;;;5020171;28;20032;-78
2022/05/23 01:24:41;;;;;;;13.15;8.95;;;20.40;99.90;;;;;;5034083;28;20037;-78
2022/05/23 01:27:08;;;;;;;9.30;8.40;;;20.40;99.90;;;;;;5040178;28;20384;-78
2022/05/23 01:29:34;;;;;;;10.70;8.35;;;20.50;99.90;;;;;;5043590;28;20039;-78
2022/05/23 01:32:00;;;;;;;15.40;8.23;;;20.50;99.90;;;;;;5039347;28;20025;-78
2022/05/23 01:34:26;;;;;;;9.27;8.10;;;20.50;99.90;;;;;;5040677;28;20033;-78
2022/05/23 01:36:53;;;;;;;10.18;8.27;;;20.50;99.90;;;;;;5037014;28;20079;-78
2022/05/23 01:39:19;;;;;;;10.65;7.70;;;20.50;99.90;;;;;;5018549;28;20026;-78
2022/05/23 01:41:45;;;;;;;13.07;7.30;;;20.60;99.90;;;;;;5020182;28;20029;-78
2022/05/23 01:44:12;;;;;;;8.15;6.50;;;20.60;99.90;;;;;;5044773;28;20033;-78
2022/05/23 01:46:37;;;;;;;7.22;6.40;;;20.60;99.90;;;;;;5039560;28;20044;-78
2022/05/23 01:49:03;;;;;;;8.27;5.97;;;20.60;99.90;;;;;;5043522;28;20071;-78
2022/05/23 01:51:29;;;;;;;10.13;6.60;;;20.60;99.90;;;;;;5023498;28;20029;-78
2022/05/23 01:53:55;;;;;;;13.32;6.25;;;20.70;99.90;;;;;;5038174;28;20040;-78
2022/05/23 01:56:20;;;;;;;11.75;6.30;;;20.70;99.90;;;;;;5039382;28;20021;-78
2022/05/23 02:01:30;;;;;;;14.40;7.03;;;20.70;99.90;;;;;;5037962;28;20027;-78
2022/05/23 02:03:56;;;;;;;7.95;6.80;;;20.70;99.90;;;;;;5043270;28;20108;-78
2022/05/23 02:06:22;;;;;;;10.48;6.32;;;20.70;99.90;;;;;;5041266;28;20017;-78
2022/05/23 02:08:47;;;;;;;7.85;6.22;;;20.60;99.90;;;;;;5042517;28;20029;-78
2022/05/23 02:11:13;;;;;;;8.98;6.50;;;20.50;99.90;;;;;;5024163;28;20017;-78
2022/05/23 02:13:42;;;;;;;12.55;6.15;;;20.60;99.90;;;;;;5039181;28;20463;-78
2022/05/23 02:16:08;;;;;;;17.00;6.28;;;20.50;99.90;;;;;;5039842;28;20033;-78
2022/05/23 02:18:34;;;;;;;9.65;5.25;;;20.50;99.90;;;;;;5038020;28;20025;-78
2022/05/23 02:21:00;;;;;;;7.22;4.82;;;20.60;99.90;;;;;;5043856;28;20036;-78
2022/05/23 02:23:26;;;;;;;10.95;4.88;;;20.60;99.90;;;;;;5040175;28;20415;-78
2022/05/23 02:25:51;;;;;;;9.55;5.30;;;20.60;99.90;;;;;;5038032;28;20096;-78
2022/05/23 02:28:18;;;;;;;9.65;5.45;;;20.70;99.90;;;;;;5037344;28;20387;-78
2022/05/23 02:30:47;;;;;;;7.40;5.28;;;20.70;99.90;;;;;;5025713;28;20108;-78
2022/05/23 02:33:13;;;;;;;7.78;4.95;;;20.70;99.90;;;;;;5041740;28;20025;-78
2022/05/23 02:35:39;;;;;;;7.15;5.07;;;20.70;99.90;;;;;;5043602;28;20028;-78
2022/05/23 02:38:05;;;;;;;6.60;4.80;;;20.70;99.90;;;;;;5040099;28;20033;-78
2022/05/23 02:40:31;;;;;;;6.35;4.97;;;20.70;99.90;;;;;;5043494;28;20486;-78
2022/05/23 02:42:57;;;;;;;7.97;4.95;;;20.70;99.90;;;;;;5022363;28;20033;-78
2022/05/23 02:45:22;;;;;;;8.25;5.05;;;20.70;99.90;;;;;;5043635;28;20414;-79
2022/05/23 02:47:51;;;;;;;8.52;5.30;;;20.70;99.90;;;;;;5039652;28;20027;-78
2022/05/23 02:50:17;;;;;;;9.05;4.75;;;20.60;99.90;;;;;;5015808;28;20053;-78
2022/05/23 02:52:44;;;;;;;6.65;5.35;;;20.60;99.90;;;;;;5020747;28;20193;-78
2022/05/23 02:55:11;;;;;;;6.35;4.88;;;20.70;99.90;;;;;;5044334;28;20032;-78
2022/05/23 02:57:37;;;;;;;6.18;4.82;;;20.70;99.90;;;;;;5038887;28;20029;-78
2022/05/23 03:00:08;;;;;;;7.15;5.03;;;20.70;99.90;;;;;;5017762;28;20029;-78
2022/05/23 03:05:19;;;;;;;12.70;5.20;;;20.70;99.90;;;;;;5045611;28;20029;-78
2022/05/23 03:07:45;;;;;;;11.73;5.40;;;20.60;99.90;;;;;;5040609;28;20021;-78
2022/05/23 03:10:11;;;;;;;7.18;5.25;;;20.60;99.90;;;;;;5043554;28;20028;-78
2022/05/23 03:12:37;;;;;;;6.65;5.30;;;20.50;99.90;;;;;;5040092;28;20106;-79
2022/05/23 03:15:05;;;;;;;10.70;5.53;;;20.50;99.90;;;;;;5040933;28;20538;-78
2022/05/23 03:17:31;;;;;;;6.63;5.10;;;20.60;99.90;;;;;;5041456;28;20025;-78
2022/05/23 03:19:57;;;;;;;8.45;5.40;;;20.50;99.90;;;;;;5039601;28;20021;-79
2022/05/23 03:27:55;;;;;;;10.70;4.90;;;20.50;99.90;;;;;;5043351;28;20036;-78
2022/05/23 03:30:21;;;;;;;12.05;4.47;;;20.40;99.90;;;;;;5021857;28;20032;-78
2022/05/23 03:32:47;;;;;;;11.50;5.07;;;20.40;99.90;;;;;;5040534;28;20026;-78
2022/05/23 03:35:13;;;;;;;10.32;5.55;;;20.20;99.90;;;;;;5040014;28;20025;-79
2022/05/23 03:37:38;;;;;;;11.10;7.07;;;20.20;99.90;;;;;;5042209;28;20053;-78
2022/05/23 03:40:10;;;;;;;16.65;9.25;;;20.30;99.90;;;;;;5037974;28;20029;-78
2022/05/23 03:42:36;;;;;;;15.70;9.98;;;20.30;99.90;;;;;;5022832;28;20527;-78
2022/05/23 03:45:02;;;;;;;16.73;11.52;;;20.30;99.90;;;;;;5046387;28;20068;-78
2022/05/23 03:47:28;;;;;;;15.40;11.48;;;20.10;99.90;;;;;;5042084;28;20480;-78
2022/05/23 03:49:53;;;;;;;22.55;12.30;;;20.10;99.90;;;;;;5039234;28;20052;-78
2022/05/23 03:52:20;;;;;;;17.73;12.98;;;20.00;99.90;;;;;;5042920;28;20082;-78
2022/05/23 03:54:47;;;;;;;14.90;11.95;;;20.00;99.90;;;;;;5039794;28;20052;-78
2022/05/23 03:57:13;;;;;;;16.38;12.23;;;19.90;99.90;;;;;;5043210;28;20065;-78
2022/05/23 03:59:38;;;;;;;17.80;12.75;;;19.90;99.90;;;;;;5039163;28;20057;-78
2022/05/23 04:02:04;;;;;;;14.52;12.65;;;19.90;99.90;;;;;;5041667;28;20396;-78
2022/05/23 04:04:33;;;;;;;17.33;12.30;;;19.90;99.90;;;;;;5047670;28;20057;-78
2022/05/23 04:07:04;;;;;;;16.02;12.50;;;19.90;99.90;;;;;;5039509;28;20116;-78
2022/05/23 04:09:31;;;;;;;13.27;11.88;;;19.90;99.90;;;;;;5035256;28;20043;-78
2022/05/23 04:11:58;;;;;;;14.77;11.43;;;19.90;99.90;;;;;;5042800;28;20055;-78
2022/05/23 04:14:28;;;;;;;14.38;11.70;;;19.90;99.90;;;;;;5047888;28;20061;-78
2022/05/23 04:16:54;;;;;;;14.15;12.00;;;19.90;99.90;;;;;;5037166;28;20029;-79
2022/05/23 04:19:19;;;;;;;15.05;11.20;;;19.90;99.90;;;;;;5043374;28;20024;-78
2022/05/23 04:21:47;;;;;;;14.27;10.95;;;19.90;99.90;;;;;;5023226;28;20364;-79
2022/05/23 04:24:15;;;;;;;14.05;10.63;;;20.00;99.90;;;;;;5038870;28;20033;-79
2022/05/23 04:26:42;;;;;;;13.77;10.60;;;20.00;99.90;;;;;;5023506;28;20021;-79
2022/05/23 04:29:08;;;;;;;12.20;10.40;;;20.10;99.90;;;;;;5027664;28;20372;-78
2022/05/23 04:31:35;;;;;;;15.68;11.10;;;20.10;99.90;;;;;;5042424;28;20021;-78
2022/05/23 04:36:47;;;;;;;18.42;13.18;;;20.20;99.90;;;;;;5041499;28;20096;-78
2022/05/23 04:39:13;;;;;;;15.40;12.75;;;20.20;99.90;;;;;;5018828;28;20033;-78
2022/05/23 04:41:38;;;;;;;14.35;11.75;;;20.20;99.90;;;;;;5042900;28;20025;-78
2022/05/23 04:44:04;;;;;;;14.70;11.93;;;20.30;99.90;;;;;;5042733;28;20037;-78
2022/05/23 04:46:30;;;;;;;15.48;12.07;;;20.30;99.90;;;;;;5041671;28;20108;-79
2022/05/23 04:51:41;;;;;;;14.75;11.85;;;20.40;99.90;;;;;;5042450;28;20048;-78
2022/05/23 04:54:07;;;;;;;22.65;13.23;;;20.60;99.90;;;;;;5044932;28;20028;-78
2022/05/23 04:56:33;;;;;;;21.70;13.07;;;20.60;99.90;;;;;;5020980;28;20060;-78
2022/05/23 04:58:59;;;;;;;15.15;12.52;;;20.70;99.90;;;;;;5039333;28;20025;-78
2022/05/23 05:01:25;;;;;;;15.07;12.05;;;20.70;99.90;;;;;;5023047;28;20029;-78
2022/05/23 05:03:57;;;;;;;13.50;11.07;;;20.80;99.90;;;;;;5044311;28;20041;-78
2022/05/23 05:06:23;;;;;;;16.63;10.82;;;20.90;99.90;;;;;;5037465;28;20014;-78
2022/05/23 05:08:49;;;;;;;15.77;11.48;;;21.00;99.90;;;;;;5042052;28;20112;-78
2022/05/23 05:11:15;;;;;;;18.55;11.15;;;21.10;99.90;;;;;;5022160;28;20361;-78
2022/05/23 05:13:44;;;;;;;13.27;10.48;;;21.10;99.90;;;;;;5024367;28;20112;-78
2022/05/23 05:16:11;;;;;;;18.33;10.27;;;21.20;99.90;;;;;;5022354;28;20459;-78
2022/05/23 05:18:37;;;;;;;14.68;9.90;;;21.30;99.90;;;;;;5042801;28;20264;-78
2022/05/23 05:21:07;;;;;;;13.50;9.68;;;21.30;99.90;;;;;;5044068;28;20295;-78
2022/05/23 05:23:33;;;;;;;10.52;9.07;;;21.40;99.90;;;;;;5032442;28;20034;-78
2022/05/23 05:25:59;;;;;;;14.57;8.38;;;21.40;99.90;;;;;;5022140;28;20028;-78
2022/05/23 05:28:25;;;;;;;13.32;7.25;;;21.50;99.90;;;;;;5041070;28;20133;-77
2022/05/23 05:31:05;;;;;;;14.98;7.75;;;21.60;99.90;;;;;;5041169;28;20021;-78
2022/05/23 05:33:37;;;;;;;11.27;7.45;;;21.70;99.90;;;;;;5038460;28;20024;-78
2022/05/23 05:36:26;;;;;;;9.38;7.43;;;21.80;99.90;;;;;;5037603;28;20027;-78
2022/05/23 05:39:02;;;;;;;11.23;6.55;;;21.80;99.90;;;;;;5042491;28;20511;-78
2022/05/23 05:41:33;;;;;;;11.50;6.70;;;21.90;99.90;;;;;;5040248;28;20040;-78
2022/05/23 05:44:06;;;;;;;14.40;6.80;;;21.90;99.90;;;;;;5040973;28;20415;-78
2022/05/23 05:46:43;;;;;;;9.30;6.60;;;22.00;99.90;;;;;;5040891;28;20074;-78
2022/05/23 05:49:16;;;;;;;11.93;6.63;;;22.10;99.90;;;;;;5032244;28;20500;-78
2022/05/23 05:51:43;;;;;;;13.05;6.43;;;22.10;99.90;;;;;;5041592;28;20040;-78
2022/05/23 05:54:12;;;;;;;11.02;6.50;;;22.20;99.90;;;;;;5035931;28;20052;-78
2022/05/23 05:56:38;;;;;;;10.95;6.45;;;22.30;99.90;;;;;;5043590;28;20017;-78
2022/05/23 05:59:05;;;;;;;13.05;6.68;;;22.30;99.90;;;;;;5040570;28;20112;-78
2022/05/23 06:01:30;;;;;;;13.20;6.60;;;22.40;99.90;;;;;;5036671;28;20484;-79
2022/05/23 06:03:56;;;;;;;8.45;6.70;;;22.40;99.90;;;;;;5043414;28;20043;-79
2022/05/23 06:11:50;;;;;;;10.80;6.03;;;22.70;99.90;;;;;;5037883;28;20120;-77
2022/05/23 06:14:15;;;;;;;9.00;6.70;;;22.80;99.90;;;;;;5044754;28;20504;-77
2022/05/23 06:16:41;;;;;;;7.78;6.05;;;22.90;99.90;;;;;;5040487;28;20014;-78
2022/05/23 06:19:07;;;;;;;11.63;5.45;;;23.00;99.90;;;;;;5038245;28;20033;-78
2022/05/23 06:21:33;;;;;;;9.55;6.30;;;23.10;99.90;;;;;;5018812;28;20116;-77
2022/05/23 06:23:59;;;;;;;9.02;6.40;;;23.20;99.90;;;;;;5036133;28;20116;-78
2022/05/23 06:26:26;;;;;;;8.23;6.07;;;23.30;99.90;;;;;;5036904;28;20041;-78
2022/05/23 06:28:52;;;;;;;7.57;6.25;;;23.40;99.90;;;;;;5037091;28;20089;-80
2022/05/23 06:31:18;;;;;;;6.18;5.57;;;23.40;99.90;;;;;;5037082;28;20048;-78
2022/05/23 06:33:44;;;;;;;9.65;6.15;;;23.50;99.90;;;;;;5040106;28;20495;-78
2022/05/23 06:36:15;;;;;;;10.07;6.50;;;23.60;99.90;;;;;;5031678;28;20591;-81
2022/05/23 06:38:41;;;;;;;11.07;6.07;;;23.70;99.90;;;;;;5022893;28;20477;-77
2022/05/23 06:41:09;;;;;;;8.20;6.43;;;23.80;99.90;;;;;;5023884;28;20465;-77
2022/05/23 06:43:36;;;;;;;8.93;5.65;;;23.90;99.90;;;;;;5040079;28;20060;-79
2022/05/23 06:46:03;;;;;;;8.63;6.05;;;24.10;99.90;;;;;;5018640;28;20036;-78
2022/05/23 06:48:30;;;;;;;6.20;5.57;;;24.20;99.90;;;;;;5043987;28;20023;-78
2022/05/23 06:50:56;;;;;;;7.40;6.03;;;24.30;99.90;;;;;;5038135;28;20048;-80
2022/05/23 06:53:24;;;;;;;8.20;6.28;;;24.40;99.90;;;;;;5037320;28;20163;-83
2022/05/23 06:55:53;;;;;;;9.52;5.80;;;24.50;99.90;;;;;;5010842;28;20496;-80
2022/05/23 06:58:21;;;;;;;6.70;5.65;;;24.60;99.90;;;;;;5040003;28;20575;-80
2022/05/23 07:00:48;;;;;;;9.32;5.72;;;24.70;99.90;;;;;;5030807;28;20126;-80
2022/05/23 07:03:14;;;;;;;8.82;5.80;;;24.80;99.90;;;;;;5029395;28;20033;-81
2022/05/23 07:14:02;;;;;;;7.00;5.93;;;25.10;99.90;;;;;;5038724;28;19917;-81
2022/05/23 07:16:34;;;;;;;6.25;5.28;;;25.10;99.90;;;;;;5037604;28;20139;-81
2022/05/23 07:19:04;;;;;;;8.35;5.82;;;25.20;99.90;;;;;;5042445;28;20113;-81
2022/05/23 07:21:31;;;;;;;6.90;5.78;;;25.20;99.90;;;;;;5019244;28;20041;-81
2022/05/23 07:23:58;;;;;;;6.57;5.63;;;25.30;99.90;;;;;;5038558;28;20029;-82
2022/05/23 07:26:24;;;;;;;7.38;5.82;;;25.30;99.90;;;;;;5016132;28;20032;-80
2022/05/23 07:28:50;;;;;;;10.70;5.90;;;25.40;99.90;;;;;;5017881;28;20025;-81
2022/05/23 07:31:16;;;;;;;8.00;5.60;;;25.40;99.90;;;;;;5039915;28;20186;-81
2022/05/23 07:33:43;;;;;;;7.40;6.10;;;25.50;99.90;;;;;;5025554;28;20048;-81
2022/05/23 07:36:10;;;;;;;6.38;5.65;;;25.60;99.90;;;;;;5043602;28;20029;-81
2022/05/23 07:38:39;;;;;;;8.68;5.40;;;25.60;99.90;;;;;;5037829;28;20554;-81
2022/05/23 07:41:07;;;;;;;9.77;5.20;;;25.70;99.90;;;;;;5042049;28;20521;-81
2022/05/23 07:43:37;;;;;;;6.50;5.80;;;25.80;99.90;;;;;;5022519;28;20034;-81
2022/05/23 07:46:09;;;;;;;10.73;5.88;;;25.90;99.90;;;;;;5035176;28;20196;-82
2022/05/23 07:48:40;;;;;;;11.77;6.10;;;26.00;99.90;;;;;;5026098;28;20197;-81
2022/05/23 07:51:07;;;;;;;16.45;6.03;;;26.10;99.90;;;;;;5026379;28;20154;-81
2022/05/23 08:01:47;;;;;;;7.03;5.40;;;26.60;99.90;;;;;;5042704;28;20032;-80
2022/05/23 08:04:12;;;;;;;7.95;5.25;;;26.70;99.90;;;;;;5022168;28;20025;-81
2022/05/23 08:06:38;;;;;;;7.50;5.72;;;26.90;99.90;;;;;;5041162;28;20177;-81
2022/05/23 08:09:04;;;;;;;10.45;5.38;;;27.10;99.90;;;;;;5045602;28;20029;-81
2022/05/23 08:11:29;;;;;;;10.70;5.93;;;27.30;99.90;;;;;;5042116;28;20021;-81
2022/05/23 08:13:57;;;;;;;5.90;5.30;;;27.40;99.90;;;;;;5040312;28;20029;-81
2022/05/23 08:16:23;;;;;;;6.78;5.10;;;27.50;99.90;;;;;;5025225;28;20064;-81
2022/05/23 08:18:49;;;;;;;10.63;5.60;;;27.60;99.90;;;;;;5039434;28;20052;-81
2022/05/23 08:21:16;;;;;;;16.02;5.53;;;27.60;99.90;;;;;;5041200;28;20395;-80
2022/05/23 08:23:42;;;;;;;14.20;5.70;;;27.70;99.90;;;;;;5036577;28;20041;-81
2022/05/23 08:26:08;;;;;;;7.95;5.80;;;27.80;99.90;;;;;;5040603;28;20025;-81
2022/05/23 08:28:34;;;;;;;16.65;5.40;;;27.90;99.90;;;;;;5040938;28;20026;-81
2022/05/23 08:31:00;;;;;;;5.88;5.28;;;27.90;99.90;;;;;;5022891;28;20039;-81
2022/05/23 08:33:26;;;;;;;10.40;5.30;;;27.90;99.90;;;;;;5023960;28;20112;-81
2022/05/23 08:35:52;;;;;;;6.53;5.25;;;27.90;99.90;;;;;;5042893;28;20108;-82
2022/05/23 08:38:18;;;;;;;10.38;5.18;;;28.10;99.90;;;;;;5021334;28;20025;-80
2022/05/23 08:41:11;;;;;;;6.93;5.38;;;28.20;99.90;;;;;;5040609;28;20033;-80
2022/05/23 08:44:06;;;;;;;12.40;5.70;;;28.40;99.90;;;;;;5040866;28;20040;-81
2022/05/23 08:46:48;;;;;;;6.30;5.70;;;28.50;99.90;;;;;;5043699;28;20503;-81
2022/05/23 08:49:25;;;;;;;11.05;6.00;;;28.00;99.90;;;;;;5028918;28;20037;-81
2022/05/23 08:52:03;;;;;;;17.90;5.68;;;28.00;99.90;;;;;;5027177;28;20104;-81
2022/05/23 08:54:35;;;;;;;8.77;5.90;;;28.20;99.90;;;;;;5020287;28;20029;-81
2022/05/23 08:57:04;;;;;;;8.27;6.00;;;28.20;99.90;;;;;;5048022;28;20018;-81
2022/05/23 08:59:43;;;;;;;9.02;5.40;;;28.30;99.90;;;;;;5054253;28;20368;-81
2022/05/23 09:02:13;;;;;;;9.93;5.82;;;28.40;99.90;;;;;;5045031;28;20027;-81
2022/05/23 09:04:46;;;;;;;13.18;5.35;;;28.70;99.90;;;;;;5037929;28;20385;-81
2022/05/23 09:07:29;;;;;;;11.60;5.53;;;28.90;99.90;;;;;;5040384;28;20212;-81
2022/05/23 09:09:59;;;;;;;7.80;5.53;;;28.90;99.90;;;;;;5034148;28;20030;-81
2022/05/23 09:12:25;;;;;;;8.43;5.72;;;29.10;99.90;;;;;;5039474;28;20083;-81
2022/05/23 09:14:51;;;;;;;6.10;5.50;;;29.40;99.90;;;;;;5045109;28;20026;-81
2022/05/23 09:17:24;;;;;;;15.90;5.90;;;29.70;99.90;;;;;;5020718;28;20112;-81
2022/05/23 09:20:00;;;;;;;38.08;6.53;;;30.20;99.90;;;;;;5024778;28;20072;-81
2022/05/23 09:22:43;;;;;;;7.00;4.93;;;30.80;99.90;;;;;;5024006;28;20039;-81
2022/05/23 09:25:16;;;;;;;10.05;5.65;;;31.00;99.90;;;;;;5026158;28;20155;-81
2022/05/23 09:27:50;;;;;;;9.35;5.40;;;31.20;99.90;;;;;;5043432;28;20113;-81
2022/05/23 09:30:22;;;;;;;8.93;4.85;;;31.50;99.90;;;;;;5037619;28;20075;-81
2022/05/23 09:32:55;;;;;;;8.82;5.38;;;31.80;99.90;;;;;;5018995;28;20044;-81
2022/05/23 09:35:27;;;;;;;18.17;5.60;;;31.90;99.90;;;;;;5044236;28;20024;-81
2022/05/23 09:38:14;;;;;;;7.15;5.32;;;31.60;99.90;;;;;;5037738;28;20032;-81
2022/05/23 09:40:41;;;;;;;14.18;5.40;;;31.40;99.90;;;;;;5037864;28;20036;-81
2022/05/23 09:49:20;;;;;;;13.73;6.55;;;30.40;99.90;;;;;;5038198;28;20124;-81
2022/05/23 09:51:56;;;;;;;13.18;6.90;;;30.00;99.90;;;;;;5023837;28;20531;-81
2022/05/23 09:54:48;;;;;;;11.30;7.10;;;29.20;99.90;;;;;;5026660;28;20480;-81
2022/05/23 09:57:32;;;;;;;11.25;6.97;;;28.90;99.90;;;;;;5015174;28;20052;-81
2022/05/23 10:00:26;;;;;;;10.23;7.05;;;28.90;99.90;;;;;;5037493;28;20480;-81
2022/05/23 10:02:59;;;;;;;10.10;7.30;;;28.50;99.90;;;;;;5017609;28;20032;-81
2022/05/23 10:05:38;;;;;;;9.52;6.75;;;28.20;99.90;;;;;;5044081;28;20045;-81
2022/05/23 10:08:10;;;;;;;13.48;6.30;;;27.90;99.90;;;;;;5022603;28;20022;-81
2022/05/23 10:10:38;;;;;;;10.98;6.57;;;27.20;99.90;;;;;;5025921;28;20029;-81
2022/05/23 10:13:25;;;;;;;12.88;6.93;;;26.90;99.90;;;;;;5040360;28;20036;-81
2022/05/23 10:15:55;;;;;;;11.80;7.03;;;26.80;99.90;;;;;;5010777;28;20091;-81
2022/05/23 10:18:25;;;;;;;10.57;6.80;;;26.90;99.90;;;;;;5036918;28;20030;-81
2022/05/23 10:20:52;;;;;;;6.53;5.82;;;27.00;99.90;;;;;;5028381;28;20021;-81
2022/05/23 10:23:28;;;;;;;16.05;6.13;;;27.30;99.90;;;;;;5035758;28;20068;-81
2022/05/23 10:26:14;;;;;;;8.15;6.82;;;27.50;99.90;;;;;;5028790;28;20033;-81
2022/05/23 10:28:48;;;;;;;7.00;6.30;;;27.60;99.90;;;;;;5022941;28;20045;-81
2022/05/23 10:31:25;;;;;;;6.28;5.63;;;27.70;99.90;;;;;;5025769;28;20049;-81
2022/05/23 10:34:01;;;;;;;13.50;6.32;;;28.00;99.90;;;;;;5040342;28;20035;-81
2022/05/23 10:36:30;;;;;;;9.27;6.78;;;28.40;99.90;;;;;;5022958;28;20035;-81
2022/05/23 10:42:21;;;;;;;10.32;7.88;;;28.60;99.90;;;;;;5039650;28;20059;-81
2022/05/23 10:45:02;;;;;;;9.63;6.10;;;28.70;99.90;;;;;;5022644;28;20032;-82
2022/05/23 10:47:52;;;;;;;8.52;6.22;;;28.60;99.90;;;;;;5034551;28;20484;-82
2022/05/23 10:50:32;;;;;;;13.98;7.57;;;28.60;99.90;;;;;;5015301;28;20136;-85
2022/05/23 10:53:37;;;;;;;7.68;6.10;;;28.50;99.90;;;;;;5036357;28;20044;-84
2022/05/23 10:56:28;;;;;;;12.98;6.68;;;28.20;99.90;;;;;;5013292;28;20025;-83
2022/05/23 10:59:33;;;;;;;9.95;6.35;;;27.90;99.90;;;;;;5011281;28;20052;-82
2022/05/23 11:02:10;;;;;;;9.85;5.50;;;27.60;99.90;;;;;;5024478;28;20121;-79
2022/05/23 11:04:59;;;;;;;8.98;5.28;;;27.50;99.90;;;;;;5035990;28;20033;-80
2022/05/23 11:07:53;;;;;;;8.73;6.40;;;27.60;99.90;;;;;;5040785;28;20148;-80
2022/05/23 11:10:22;;;;;;;13.05;7.97;;;27.80;99.90;;;;;;5019418;28;20479;-81
2022/05/23 11:13:17;;;;;;;12.70;7.57;;;27.50;99.90;;;;;;5034254;28;20087;-80
2022/05/23 11:16:08;;;;;;;7.68;6.70;;;27.10;99.90;;;;;;5018554;28;20033;-85
2022/05/23 11:18:55;;;;;;;10.83;7.10;;;27.20;99.90;;;;;;5020740;28;20400;-80
2022/05/23 11:21:44;;;;;;;11.93;7.18;;;27.50;99.90;;;;;;5040486;28;20055;-80
2022/05/23 11:24:18;;;;;;;11.52;7.03;;;27.70;99.90;;;;;;5030246;28;20044;-80
2022/05/23 11:33:41;;;;;;;13.88;7.93;;;27.50;99.90;;;;;;5039691;28;20875;-79
2022/05/23 11:35:21;;;;;;;14.93;8.65;;;27.10;99.90;;;;;;5046793;28;20070;-79
2022/05/23 11:37:50;;;;;;;10.57;8.00;;;26.70;99.90;;;;;;5036416;28;20112;-79
2022/05/23 11:40:25;;;;;;;15.15;8.00;;;26.60;99.90;;;;;;5038284;28;21673;-79
2022/05/23 11:43:07;;;;;;;11.70;7.40;;;26.50;99.90;;;;;;5024665;28;20041;-79
2022/05/23 11:48:56;;;;;;;12.38;6.65;;;26.70;99.90;;;;;;5039389;28;20036;-80
2022/05/23 11:51:23;;;;;;;10.63;7.85;;;27.00;99.90;;;;;;5034478;28;20049;-79
2022/05/23 11:54:05;;;;;;;12.77;7.50;;;27.20;99.90;;;;;;5043110;28;20029;-80
2022/05/23 11:56:55;;;;;;;8.07;6.82;;;27.30;99.90;;;;;;5024832;28;20029;-79
2022/05/23 11:59:23;;;;;;;8.70;6.75;;;27.40;99.90;;;;;;5041332;28;20491;-80
2022/05/23 12:02:11;;;;;;;12.70;7.30;;;28.10;99.90;;;;;;5043679;28;20104;-81
2022/05/23 12:04:49;;;;;;;10.13;7.30;;;28.70;99.90;;;;;;5019915;28;20128;-80
2022/05/23 12:07:45;;;;;;;15.43;7.40;;;29.10;99.90;;;;;;5015844;28;20068;-80
2022/05/23 12:10:24;;;;;;;12.30;6.80;;;29.40;99.90;;;;;;5047277;28;20078;-80
2022/05/23 12:13:31;;;;;;;16.00;7.75;;;28.90;99.90;;;;;;5036780;28;20502;-80
2022/05/23 12:16:15;;;;;;;16.13;7.72;;;28.80;99.90;;;;;;5030395;28;20037;-81
2022/05/23 12:18:47;;;;;;;9.57;7.63;;;28.30;99.90;;;;;;5042060;28;20014;-80
2022/05/23 12:21:35;;;;;;;13.00;7.45;;;28.60;99.90;;;;;;5044286;28;20040;-80
2022/05/23 12:24:21;;;;;;;10.43;7.70;;;29.90;99.90;;;;;;5045250;28;20037;-81
2022/05/23 12:26:52;;;;;;;8.73;7.13;;;30.10;99.90;;;;;;5041027;28;20025;-79
2022/05/23 12:29:30;;;;;;;12.68;7.30;;;29.90;99.90;;;;;;5020847;28;20025;-80
2022/05/23 12:32:18;;;;;;;12.60;7.55;;;29.60;99.90;;;;;;5037302;28;20030;-80
2022/05/23 12:34:51;;;;;;;17.58;7.05;;;29.90;99.90;;;;;;5028053;28;20548;-80
2022/05/23 12:37:34;;;;;;;17.33;6.90;;;30.50;99.90;;;;;;5040979;28;20036;-80
2022/05/23 12:40:13;;;;;;;;;;;30.20;99.90;;;;;;5038479;28;20032;-81
2022/05/23 12:43:05;;;;;;;8.63;6.60;;;30.30;99.90;;;;;;5041896;28;19920;-82
2022/05/23 12:45:35;;;;;;;;;;;30.40;99.90;;;;;;5034753;28;20053;-82
2022/05/23 12:48:10;;;;;;;10.05;6.70;;;30.80;99.90;;;;;;5039552;28;19912;-80
2022/05/23 12:51:07;;;;;;;11.77;6.75;;;31.30;99.90;;;;;;5044426;28;20321;-81
2022/05/23 12:53:57;;;;;;;14.63;6.63;;;31.10;99.90;;;;;;5015028;28;20032;-79
2022/05/23 12:56:35;;;;;;;11.25;6.97;;;29.40;99.90;;;;;;5041069;28;20056;-81
2022/05/23 12:59:15;;;;;;;12.45;7.88;;;28.50;99.90;;;;;;5038872;28;20021;-80
2022/05/23 13:01:45;;;;;;;12.85;7.28;;;27.80;99.90;;;;;;5025135;28;20377;-81
2022/05/23 13:04:27;;;;;;;13.70;7.10;;;28.00;99.90;;;;;;5045167;28;20052;-80
2022/05/23 13:07:18;;;;;;;10.40;7.05;;;27.60;99.90;;;;;;5038342;28;20597;-80
2022/05/23 13:09:57;;;;;;;9.70;6.03;;;27.40;99.90;;;;;;5009858;28;20037;-81
2022/05/23 13:12:38;;;;;;;12.63;6.40;;;27.50;99.90;;;;;;5023168;28;20064;-80
2022/05/23 13:15:04;;;;;;;16.53;6.60;;;27.00;99.90;;;;;;5026756;28;20388;-80
2022/05/23 13:17:41;;;;;;;17.35;6.75;;;27.00;99.90;;;;;;5026349;28;20029;-81
2022/05/23 13:23:00;;;;;;;16.70;7.18;;;26.00;99.90;;;;;;5039620;28;20080;-81
2022/05/23 13:25:30;;;;;;;21.45;7.00;;;25.50;99.90;;;;;;5021473;28;20021;-81
2022/05/23 13:27:58;;;;;;;12.45;6.80;;;25.40;99.90;;;;;;5042446;28;20545;-81
2022/05/23 13:30:27;;;;;;;13.98;7.13;;;25.40;99.90;;;;;;5028159;28;20541;-82
2022/05/23 13:33:14;;;;;;;10.55;7.00;;;25.30;99.90;;;;;;5025823;28;20096;-80
2022/05/23 13:35:44;;;;;;;10.95;6.57;;;25.10;99.90;;;;;;5035441;28;20480;-80
2022/05/23 13:38:34;;;;;;;10.63;6.90;;;24.90;99.90;;;;;;5040796;28;20079;-80
2022/05/23 13:41:05;;;;;;;17.15;6.68;;;24.50;99.90;;;;;;5030719;28;20431;-80
2022/05/23 13:43:42;;;;;;;10.48;6.43;;;24.70;99.90;;;;;;5024076;28;20025;-80
2022/05/23 13:46:08;;;;;;;14.45;7.03;;;24.80;99.90;;;;;;5038291;28;20029;-81
2022/05/23 13:49:07;;;;;;;11.80;6.18;;;24.70;99.90;;;;;;5041800;28;20040;-80
2022/05/23 13:51:44;;;;;;;11.45;7.53;;;24.60;99.90;;;;;;5023381;28;20047;-79
2022/05/23 13:54:34;;;;;;;20.17;7.15;;;24.70;99.90;;;;;;5042821;28;20070;-80
2022/05/23 13:57:06;;;;;;;11.63;6.32;;;24.70;99.90;;;;;;5037074;28;20120;-79
2022/05/23 13:59:38;;;;;;;8.93;6.38;;;24.70;99.90;;;;;;5018516;28;20025;-80
2022/05/23 14:02:12;;;;;;;10.95;6.47;;;24.40;99.90;;;;;;5023783;28;20395;-80
2022/05/23 14:04:40;;;;;;;11.25;5.78;;;24.20;99.90;;;;;;5030161;28;20069;-81
2022/05/23 14:07:15;;;;;;;13.77;6.10;;;24.40;99.90;;;;;;5023109;28;20021;-79